createdAt,value
2022-12-14T00:01:23.315Z,22.40
2022-12-14T00:03:50.752Z,21.20
2022-12-14T00:06:21.630Z,22.50
2022-12-14T00:08:50.364Z,23.60
2022-12-14T00:11:19.315Z,24.00
2022-12-14T00:13:48.899Z,22.40
2022-12-14T00:16:17.766Z,22.70
2022-12-14T00:18:49.505Z,22.70
2022-12-14T00:21:16.285Z,22.00
2022-12-14T00:23:44.753Z,20.90
2022-12-14T00:26:15.951Z,20.30
2022-12-14T00:28:44.347Z,21.30
2022-12-14T00:31:11.184Z,21.60
2022-12-14T00:33:38.578Z,20.50
2022-12-14T00:36:07.511Z,21.20
2022-12-14T00:38:34.722Z,21.20
2022-12-14T00:41:01.562Z,21.10
2022-12-14T00:43:27.991Z,19.60
2022-12-14T00:45:54.666Z,20.00
2022-12-14T00:48:22.567Z,18.90
2022-12-14T00:50:51.039Z,20.50
2022-12-14T00:53:18.122Z,20.50
2022-12-14T00:55:49.265Z,20.50
2022-12-14T00:58:20.001Z,21.00
2022-12-14T01:00:47.801Z,19.80
2022-12-14T01:03:14.332Z,18.90
2022-12-14T01:05:41.201Z,20.30
2022-12-14T01:08:08.182Z,20.40
2022-12-14T01:10:38.792Z,19.90
2022-12-14T01:13:05.777Z,21.40
2022-12-14T01:15:35.738Z,21.50
2022-12-14T01:18:04.026Z,19.10
2022-12-14T01:20:30.574Z,19.90
2022-12-14T01:22:57.336Z,18.10
2022-12-14T01:25:24.297Z,19.70
2022-12-14T01:27:50.784Z,19.20
2022-12-14T01:30:18.511Z,18.50
2022-12-14T01:32:45.834Z,19.80
2022-12-14T01:35:12.359Z,18.90
2022-12-14T01:37:38.745Z,18.70
2022-12-14T01:40:05.758Z,18.70
2022-12-14T01:42:35.186Z,18.30
2022-12-14T01:45:02.256Z,17.80
2022-12-14T01:47:37.748Z,17.80
2022-12-14T01:50:21.600Z,17.10
2022-12-14T01:52:52.012Z,18.50
2022-12-14T01:55:24.219Z,17.20
2022-12-14T01:58:03.526Z,16.80
2022-12-14T02:00:30.319Z,15.90
2022-12-14T02:03:06.484Z,15.50
2022-12-14T02:05:37.460Z,14.80
2022-12-14T02:08:06.275Z,15.10
2022-12-14T02:10:33.535Z,15.30
2022-12-14T02:13:11.397Z,17.20
2022-12-14T02:15:40.179Z,16.10
2022-12-14T02:18:11.643Z,17.60
2022-12-14T02:20:52.678Z,18.10
2022-12-14T02:23:44.568Z,18.40
2022-12-14T02:26:38.699Z,18.30
2022-12-14T02:29:28.938Z,18.30
2022-12-14T02:32:10.371Z,19.00
2022-12-14T02:34:57.495Z,19.60
2022-12-14T02:37:39.049Z,21.50
2022-12-14T02:40:26.435Z,21.60
2022-12-14T02:43:06.117Z,22.60
2022-12-14T02:45:45.990Z,20.80
2022-12-14T02:48:21.163Z,20.60
2022-12-14T02:51:05.689Z,19.10
2022-12-14T02:54:00.506Z,19.20
2022-12-14T02:56:42.030Z,19.40
2022-12-14T02:59:09.520Z,20.10
2022-12-14T03:01:38.495Z,18.20
2022-12-14T03:04:06.258Z,19.50
2022-12-14T03:06:32.788Z,18.00
2022-12-14T03:09:04.712Z,19.00
2022-12-14T03:11:45.241Z,20.60
2022-12-14T03:14:26.652Z,19.20
2022-12-14T03:16:57.167Z,17.90
2022-12-14T03:19:30.682Z,16.70
2022-12-14T03:22:03.884Z,18.60
2022-12-14T03:24:38.593Z,16.80
2022-12-14T03:27:12.879Z,17.80
2022-12-14T03:29:46.819Z,18.10
2022-12-14T03:32:18.376Z,17.10
2022-12-14T03:34:54.116Z,18.90
2022-12-14T03:37:38.556Z,20.00
2022-12-14T03:40:08.628Z,20.70
2022-12-14T03:42:49.486Z,22.60
2022-12-14T03:45:28.997Z,21.20
2022-12-14T03:48:35.379Z,20.20
2022-12-14T03:51:12.103Z,21.00
2022-12-14T03:53:50.207Z,20.30
2022-12-14T03:56:29.918Z,20.00
2022-12-14T03:59:18.153Z,20.30
2022-12-14T04:02:06.497Z,20.60
2022-12-14T04:04:43.501Z,19.50
2022-12-14T04:07:29.078Z,20.60
2022-12-14T04:10:03.101Z,18.20
2022-12-14T04:12:57.405Z,18.30
2022-12-14T04:15:47.834Z,19.10
2022-12-14T04:18:38.029Z,19.60
2022-12-14T04:21:14.823Z,18.60
2022-12-14T04:23:58.362Z,18.90
2022-12-14T04:26:30.254Z,20.10
2022-12-14T04:29:18.676Z,18.20
2022-12-14T04:31:50.748Z,17.30
2022-12-14T04:34:22.399Z,17.50
2022-12-14T04:36:55.429Z,16.60
2022-12-14T04:39:32.562Z,15.70
2022-12-14T04:42:02.204Z,17.30
2022-12-14T04:44:34.891Z,16.90
2022-12-14T04:47:05.267Z,18.80
2022-12-14T04:49:38.477Z,18.20
2022-12-14T04:52:15.804Z,18.30
2022-12-14T04:54:50.080Z,15.50
2022-12-14T04:57:35.776Z,15.80
2022-12-14T05:00:04.859Z,17.70
2022-12-14T05:02:51.685Z,17.80
2022-12-14T05:08:01.650Z,16.10
2022-12-14T05:10:50.106Z,16.50
2022-12-14T05:13:31.538Z,19.40
2022-12-14T05:15:59.433Z,19.40
2022-12-14T05:18:28.317Z,21.30
2022-12-14T05:20:54.952Z,21.70
2022-12-14T05:23:21.519Z,19.20
2022-12-14T05:25:50.104Z,19.70
2022-12-14T05:28:16.649Z,19.70
2022-12-14T05:30:43.332Z,23.10
2022-12-14T05:33:19.241Z,22.60
2022-12-14T05:35:45.863Z,20.20
2022-12-14T05:38:12.492Z,19.90
2022-12-14T05:40:39.468Z,23.90
2022-12-14T05:43:07.022Z,21.20
2022-12-14T05:45:33.479Z,22.00
2022-12-14T05:48:00.271Z,19.50
2022-12-14T05:50:27.272Z,20.80
2022-12-14T05:52:55.095Z,21.00
2022-12-14T05:55:21.752Z,19.70
2022-12-14T05:57:48.271Z,20.00
2022-12-14T06:00:14.992Z,21.90
2022-12-14T06:02:41.515Z,20.50
2022-12-14T06:05:08.365Z,18.20
2022-12-14T06:07:34.887Z,18.30
2022-12-14T06:10:01.357Z,19.20
2022-12-14T06:12:27.816Z,18.30
2022-12-14T06:14:54.215Z,20.20
2022-12-14T06:17:20.722Z,20.30
2022-12-14T06:19:49.825Z,19.10
2022-12-14T06:22:17.849Z,20.20
2022-12-14T06:24:46.951Z,19.10
2022-12-14T06:27:13.366Z,21.70
2022-12-14T06:29:39.795Z,21.40
2022-12-14T06:32:06.343Z,21.20
2022-12-14T06:34:36.850Z,20.50
2022-12-14T06:37:05.459Z,20.60
2022-12-14T06:39:32.093Z,18.90
2022-12-14T06:41:58.475Z,21.20
2022-12-14T06:44:24.942Z,20.50
2022-12-14T06:46:51.588Z,18.60
2022-12-14T06:49:18.198Z,19.90
2022-12-14T06:51:44.796Z,18.60
2022-12-14T06:54:13.046Z,21.00
2022-12-14T06:56:39.951Z,21.30
2022-12-14T06:59:08.086Z,21.80
2022-12-14T07:01:36.038Z,21.10
2022-12-14T07:04:03.719Z,19.50
2022-12-14T07:06:35.066Z,19.60
2022-12-14T07:09:02.071Z,19.00
2022-12-14T07:11:29.523Z,18.30
2022-12-14T07:14:02.576Z,18.40
2022-12-14T07:16:29.204Z,19.80
2022-12-14T07:18:56.129Z,21.30
2022-12-14T07:21:24.436Z,20.10
2022-12-14T07:23:51.736Z,20.10
2022-12-14T07:26:22.438Z,21.40
2022-12-14T07:28:50.640Z,20.70
2022-12-14T07:31:24.155Z,21.60
2022-12-14T07:33:58.205Z,20.70
2022-12-14T07:36:26.614Z,20.30
2022-12-14T07:38:55.054Z,20.60
2022-12-14T07:41:31.012Z,22.60
2022-12-14T07:44:02.116Z,22.60
2022-12-14T07:46:34.361Z,23.90
2022-12-14T07:49:04.037Z,20.10
2022-12-14T07:51:38.863Z,21.10
2022-12-14T07:54:07.865Z,19.10
2022-12-14T07:56:37.621Z,19.50
2022-12-14T07:59:08.266Z,18.40
2022-12-14T08:01:37.474Z,20.00
2022-12-14T08:04:18.737Z,19.90
2022-12-14T08:06:54.402Z,19.20
2022-12-14T08:09:21.051Z,20.90
2022-12-14T08:11:57.946Z,19.50
2022-12-14T08:15:09.523Z,19.10
2022-12-14T08:17:52.743Z,20.60
2022-12-14T08:20:53.101Z,18.40
2022-12-14T08:23:26.763Z,19.70
2022-12-14T08:26:05.571Z,19.20
2022-12-14T08:28:35.781Z,18.90
2022-12-14T08:31:10.588Z,19.80
2022-12-14T08:33:47.734Z,18.80
2022-12-14T08:36:27.388Z,17.90
2022-12-14T08:38:55.919Z,17.40
2022-12-14T08:41:23.692Z,19.30
2022-12-14T08:43:57.336Z,17.30
2022-12-14T08:46:25.628Z,12.80
2022-12-14T08:48:53.752Z,15.50
2022-12-14T08:51:21.200Z,9.00
2022-12-14T08:53:48.364Z,8.10
2022-12-14T08:56:18.086Z,8.00
2022-12-14T08:58:55.416Z,8.30
2022-12-14T09:01:33.293Z,7.50
2022-12-14T09:04:07.642Z,7.00
2022-12-14T09:06:40.258Z,7.70
2022-12-14T09:09:15.669Z,7.70
2022-12-14T09:11:48.150Z,7.50
2022-12-14T09:14:18.893Z,7.70
2022-12-14T09:16:49.943Z,6.60
2022-12-14T09:19:16.570Z,7.00
2022-12-14T09:21:45.780Z,6.40
2022-12-14T09:24:12.427Z,4.50
2022-12-14T09:26:39.292Z,6.80
2022-12-14T09:29:08.286Z,7.70
2022-12-14T09:31:34.946Z,7.90
2022-12-14T09:34:29.151Z,7.30
2022-12-14T09:36:55.925Z,8.30
2022-12-14T09:39:45.825Z,8.60
2022-12-14T09:43:00.251Z,6.90
2022-12-14T09:45:57.680Z,8.50
2022-12-14T09:48:27.222Z,8.70
2022-12-14T09:50:57.032Z,10.00
2022-12-14T09:53:26.825Z,9.10
2022-12-14T09:56:13.901Z,8.90
2022-12-14T09:58:51.514Z,9.60
2022-12-14T10:01:46.950Z,9.50
2022-12-14T10:04:50.603Z,9.20
2022-12-14T10:07:34.556Z,9.00
2022-12-14T10:10:29.675Z,9.50
2022-12-14T10:13:24.759Z,9.00
2022-12-14T10:16:21.920Z,9.80
2022-12-14T10:19:02.324Z,8.70
2022-12-14T10:21:42.198Z,8.40
2022-12-14T10:24:15.156Z,8.50
2022-12-14T10:26:47.292Z,8.50
2022-12-14T10:29:20.875Z,7.40
2022-12-14T10:32:03.683Z,7.00
2022-12-14T10:34:34.088Z,5.70
2022-12-14T10:37:23.386Z,5.00
2022-12-14T10:40:24.762Z,4.60
2022-12-14T10:43:24.170Z,3.40
2022-12-14T10:46:21.963Z,4.70
2022-12-14T10:49:10.116Z,4.30
2022-12-14T10:51:46.335Z,4.80
2022-12-14T10:54:30.854Z,5.90
2022-12-14T10:56:57.970Z,4.50
2022-12-14T10:59:31.145Z,4.80
2022-12-14T11:02:09.668Z,4.50
2022-12-14T11:04:52.719Z,8.70
2022-12-14T11:07:36.370Z,8.30
2022-12-14T11:10:24.345Z,8.20
2022-12-14T11:13:18.475Z,8.30
2022-12-14T11:15:48.221Z,9.40
2022-12-14T11:18:27.463Z,9.30
2022-12-14T11:20:59.112Z,10.00
2022-12-14T11:23:29.340Z,9.80
2022-12-14T11:26:00.739Z,10.40
2022-12-14T11:28:52.017Z,9.70
2022-12-14T11:31:25.867Z,9.80
2022-12-14T11:33:56.434Z,10.00
2022-12-14T11:36:41.384Z,10.00
2022-12-14T11:39:21.495Z,10.70
2022-12-14T11:42:00.200Z,10.80
2022-12-14T11:44:30.548Z,11.30
2022-12-14T11:47:19.305Z,8.90
2022-12-14T11:49:54.876Z,9.50
2022-12-14T11:52:41.957Z,9.90
2022-12-14T11:55:27.659Z,9.50
2022-12-14T11:58:00.357Z,9.70
2022-12-14T12:00:47.374Z,9.50
2022-12-14T12:03:27.587Z,9.40
2022-12-14T12:06:28.833Z,9.80
2022-12-14T12:09:03.221Z,8.20
2022-12-14T12:11:34.420Z,9.00
2022-12-14T12:14:15.522Z,8.50
2022-12-14T12:16:48.509Z,8.20
2022-12-14T12:19:34.090Z,7.90
2022-12-14T12:22:14.633Z,8.80
2022-12-14T12:28:06.183Z,8.50
2022-12-14T12:30:50.297Z,7.70
2022-12-14T12:33:37.068Z,7.70
2022-12-14T12:36:21.888Z,8.40
2022-12-14T12:39:15.958Z,7.70
2022-12-14T12:42:07.674Z,7.20
2022-12-14T12:44:54.712Z,8.70
2022-12-14T12:47:41.503Z,7.10
2022-12-14T12:50:23.030Z,7.70
2022-12-14T12:55:33.636Z,7.10
2022-12-14T13:00:42.800Z,7.80
2022-12-14T13:03:18.293Z,7.20
2022-12-14T13:05:49.377Z,7.50
2022-12-14T13:08:30.863Z,7.30
2022-12-14T13:11:24.945Z,8.80
2022-12-14T13:13:55.072Z,8.00
2022-12-14T13:16:31.493Z,8.40
2022-12-14T13:19:40.434Z,8.60
2022-12-14T13:21:59.183Z,9.90
2022-12-14T13:24:32.830Z,9.10
2022-12-14T13:27:30.979Z,8.50
2022-12-14T13:30:24.586Z,9.10
2022-12-14T13:33:51.832Z,10.30
2022-12-14T13:36:55.401Z,10.20
2022-12-14T13:39:45.577Z,10.70
2022-12-14T13:42:41.690Z,9.10
2022-12-14T13:45:35.208Z,10.80
2022-12-14T13:48:09.755Z,10.10
2022-12-14T13:50:52.986Z,10.80
2022-12-14T13:53:35.890Z,10.60
2022-12-14T13:56:04.160Z,11.60
2022-12-14T13:58:38.609Z,11.30
2022-12-14T14:01:48.313Z,11.30
2022-12-14T14:04:34.095Z,11.40
2022-12-14T14:07:44.067Z,11.40
2022-12-14T14:10:36.651Z,10.50
2022-12-14T14:13:34.730Z,11.20
2022-12-14T14:16:27.953Z,10.30
2022-12-14T14:19:20.982Z,11.60
2022-12-14T14:22:26.741Z,10.90
2022-12-14T14:25:24.170Z,10.70
2022-12-14T14:27:59.286Z,11.60
2022-12-14T14:30:39.374Z,11.30
2022-12-14T14:36:32.659Z,11.60
2022-12-14T14:39:57.762Z,11.70
2022-12-14T14:42:31.460Z,11.10
2022-12-14T14:45:08.291Z,10.60
2022-12-14T14:47:39.113Z,11.00
2022-12-14T14:50:32.595Z,11.50
2022-12-14T14:53:21.369Z,9.90
2022-12-14T14:56:02.254Z,9.40
2022-12-14T14:58:34.526Z,10.40
2022-12-14T15:01:19.249Z,9.70
2022-12-14T15:03:55.771Z,10.00
2022-12-14T15:09:02.725Z,10.50
2022-12-14T15:11:36.004Z,10.50
2022-12-14T15:14:15.362Z,10.20
2022-12-14T15:16:44.743Z,10.20
2022-12-14T15:19:25.787Z,9.10
2022-12-14T15:21:58.458Z,12.20
2022-12-14T15:24:28.408Z,10.60
2022-12-14T15:26:55.088Z,13.00
2022-12-14T15:29:27.273Z,12.30
2022-12-14T15:31:59.999Z,11.70
2022-12-14T15:34:27.575Z,11.70
2022-12-14T15:36:54.917Z,12.70
2022-12-14T15:39:39.201Z,12.80
2022-12-14T15:42:14.420Z,12.70
2022-12-14T15:44:54.974Z,13.00
2022-12-14T15:47:27.027Z,13.10
2022-12-14T15:49:59.732Z,12.70
2022-12-14T15:52:34.617Z,13.50
2022-12-14T15:55:27.229Z,12.90
2022-12-14T15:57:53.941Z,11.90
2022-12-14T16:00:20.704Z,12.00
2022-12-14T16:02:47.663Z,12.30
2022-12-14T16:05:19.858Z,12.00
2022-12-14T16:07:52.133Z,12.00
2022-12-14T16:10:27.862Z,11.30
2022-12-14T16:13:02.165Z,10.20
2022-12-14T16:15:29.469Z,14.30
2022-12-14T16:18:02.171Z,12.20
2022-12-14T16:20:33.549Z,11.00
2022-12-14T16:23:21.815Z,13.40
2022-12-14T16:25:52.698Z,11.00
2022-12-14T16:28:27.875Z,12.90
2022-12-14T16:30:59.852Z,13.60
2022-12-14T16:33:26.823Z,12.20
2022-12-14T16:36:11.029Z,12.10
2022-12-14T16:38:54.350Z,12.70
2022-12-14T16:41:37.226Z,12.60
2022-12-14T16:44:07.011Z,13.10
2022-12-14T16:46:33.584Z,13.30
2022-12-14T16:49:35.520Z,14.20
2022-12-14T16:52:15.614Z,13.80
2022-12-14T16:54:42.770Z,13.00
2022-12-14T16:57:20.322Z,14.00
2022-12-14T16:59:56.817Z,14.40
2022-12-14T17:02:43.946Z,12.40
2022-12-14T17:05:15.642Z,13.90
2022-12-14T17:07:42.093Z,13.30
2022-12-14T17:10:19.087Z,13.10
2022-12-14T17:12:46.743Z,12.90
2022-12-14T17:15:15.734Z,13.30
2022-12-14T17:17:44.429Z,13.50
2022-12-14T17:20:25.293Z,13.00
2022-12-14T17:22:53.597Z,13.10
2022-12-14T17:25:20.227Z,13.70
2022-12-14T17:27:46.851Z,13.00
2022-12-14T17:30:19.553Z,13.20
2022-12-14T17:32:47.641Z,13.90
2022-12-14T17:35:25.387Z,14.30
2022-12-14T17:37:52.901Z,13.40
2022-12-14T17:40:19.361Z,13.60
2022-12-14T17:42:50.970Z,12.50
2022-12-14T17:45:21.531Z,11.30
2022-12-14T17:47:48.372Z,7.90
2022-12-14T17:50:18.362Z,10.60
2022-12-14T17:52:45.386Z,10.30
2022-12-14T17:55:17.764Z,11.00
2022-12-14T17:57:45.260Z,13.10
2022-12-14T18:00:31.122Z,13.00
2022-12-14T18:02:58.122Z,12.30
2022-12-14T18:05:24.732Z,10.40
2022-12-14T18:07:51.120Z,10.70
2022-12-14T18:10:17.749Z,9.90
2022-12-14T18:12:44.154Z,10.00
2022-12-14T18:15:19.787Z,10.10
2022-12-14T18:17:46.355Z,9.60
2022-12-14T18:20:18.456Z,9.90
2022-12-14T18:22:49.775Z,10.20
2022-12-14T18:25:26.924Z,9.80
2022-12-14T18:28:01.556Z,9.50
2022-12-14T18:30:34.877Z,10.00
2022-12-14T18:33:03.369Z,10.30
2022-12-14T18:35:31.939Z,8.90
2022-12-14T18:37:58.688Z,7.80
2022-12-14T18:40:27.660Z,7.10
2022-12-14T18:42:54.577Z,7.80
2022-12-14T18:45:24.700Z,7.10
2022-12-14T18:47:51.967Z,7.00
2022-12-14T18:50:19.454Z,8.10
2022-12-14T18:52:46.476Z,9.40
2022-12-14T18:55:23.066Z,9.90
2022-12-14T19:00:19.588Z,8.70
2022-12-14T19:02:46.751Z,8.40
2022-12-14T19:05:19.738Z,7.80
2022-12-14T19:07:46.101Z,7.00
2022-12-14T19:10:18.746Z,7.50
2022-12-14T19:12:46.054Z,7.30
2022-12-14T19:15:16.325Z,7.40
2022-12-14T19:17:42.920Z,8.00
2022-12-14T19:20:11.816Z,7.20
2022-12-14T19:22:38.928Z,7.80
2022-12-14T19:25:07.170Z,7.40
2022-12-14T19:28:11.613Z,6.80
2022-12-14T19:30:22.345Z,7.20
2022-12-14T19:32:51.573Z,7.00
2022-12-14T19:35:19.431Z,7.60
2022-12-14T19:37:46.025Z,7.60
2022-12-14T19:40:14.058Z,7.40
2022-12-14T19:42:41.292Z,7.80
2022-12-14T19:45:09.250Z,7.30
2022-12-14T19:47:36.104Z,7.30
2022-12-14T19:50:04.759Z,7.70
2022-12-14T19:52:31.524Z,7.00
2022-12-14T19:54:57.935Z,8.10
2022-12-14T19:57:24.604Z,7.80
2022-12-14T19:59:51.168Z,8.20
2022-12-14T20:02:17.819Z,8.20
2022-12-14T20:04:44.708Z,8.10
2022-12-14T20:07:11.253Z,7.70
2022-12-14T20:09:37.687Z,7.80
2022-12-14T20:12:04.499Z,7.20
2022-12-14T20:14:31.099Z,7.40
2022-12-14T20:16:57.594Z,7.40
2022-12-14T20:19:24.169Z,10.00
2022-12-14T20:21:50.759Z,11.60
2022-12-14T20:24:17.260Z,10.20
2022-12-14T20:26:43.744Z,13.60
2022-12-14T20:29:10.494Z,11.60
2022-12-14T20:31:37.103Z,10.90
2022-12-14T20:34:04.736Z,10.90
2022-12-14T20:36:32.019Z,10.80
2022-12-14T20:39:00.984Z,9.70
2022-12-14T20:41:28.555Z,10.40
2022-12-14T20:43:55.171Z,11.00
2022-12-14T20:46:32.129Z,10.70
2022-12-14T20:49:00.771Z,10.10
2022-12-14T20:51:30.037Z,11.10
2022-12-14T20:53:57.203Z,10.20
2022-12-14T20:56:23.931Z,10.40
2022-12-14T20:58:50.435Z,11.20
2022-12-14T21:01:18.745Z,10.60
2022-12-14T21:03:46.285Z,10.90
2022-12-14T21:06:14.423Z,10.00
2022-12-14T21:08:53.482Z,10.20
2022-12-14T21:11:33.599Z,10.20
2022-12-14T21:14:00.033Z,9.90
2022-12-14T21:16:26.513Z,10.40
2022-12-14T21:18:52.978Z,9.40
2022-12-14T21:21:19.431Z,9.30
2022-12-14T21:23:45.901Z,10.90
2022-12-14T21:26:12.408Z,10.20
2022-12-14T21:28:38.841Z,9.40
2022-12-14T21:31:07.839Z,10.60
2022-12-14T21:33:38.864Z,9.70
2022-12-14T21:36:07.788Z,9.70
2022-12-14T21:38:35.564Z,9.90
2022-12-14T21:41:15.448Z,9.40
2022-12-14T21:43:41.815Z,9.80
2022-12-14T21:46:08.371Z,9.40
2022-12-14T21:48:35.643Z,9.40
2022-12-14T21:51:09.501Z,9.40
2022-12-14T21:53:37.305Z,10.10
2022-12-14T21:56:16.343Z,9.40
2022-12-14T21:58:42.810Z,9.70
2022-12-14T22:01:09.391Z,10.70
2022-12-14T22:03:36.072Z,9.30
2022-12-14T22:06:02.705Z,9.20
2022-12-14T22:08:30.097Z,9.40
2022-12-14T22:11:02.141Z,9.20
2022-12-14T22:13:29.032Z,9.50
2022-12-14T22:15:55.777Z,10.70
2022-12-14T22:18:22.148Z,11.50
2022-12-14T22:20:48.967Z,11.70
2022-12-14T22:23:15.893Z,12.40
2022-12-14T22:25:49.657Z,12.60
2022-12-14T22:28:16.326Z,11.90
2022-12-14T22:30:42.762Z,11.30
2022-12-14T22:33:10.370Z,11.70
2022-12-14T22:35:36.782Z,11.00
2022-12-14T22:38:03.243Z,11.20
2022-12-14T22:40:30.680Z,10.60
2022-12-14T22:42:58.200Z,11.50
2022-12-14T22:45:26.002Z,11.70
2022-12-14T22:47:52.997Z,10.70
2022-12-14T22:50:20.189Z,11.20
2022-12-14T22:52:49.652Z,11.50
2022-12-14T22:55:16.646Z,13.30
2022-12-14T22:57:45.051Z,11.20
2022-12-14T23:00:15.759Z,10.80
2022-12-14T23:02:47.878Z,11.10
2022-12-14T23:05:16.634Z,10.50
2022-12-14T23:07:43.142Z,11.50
2022-12-14T23:10:21.241Z,13.00
2022-12-14T23:13:01.555Z,14.00
2022-12-14T23:15:41.609Z,14.60
2022-12-14T23:18:21.714Z,15.10
2022-12-14T23:21:01.894Z,13.80
2022-12-14T23:23:41.967Z,13.70
2022-12-14T23:26:22.203Z,14.50
2022-12-14T23:29:02.319Z,12.40
2022-12-14T23:31:42.534Z,13.70
2022-12-14T23:34:22.627Z,12.50
2022-12-14T23:37:02.847Z,12.30
2022-12-14T23:39:42.999Z,12.70
2022-12-14T23:42:23.152Z,12.60
2022-12-14T23:45:03.211Z,13.30
2022-12-14T23:47:43.807Z,13.70
2022-12-14T23:50:23.362Z,14.10
2022-12-14T23:53:03.749Z,14.80
2022-12-14T23:55:43.525Z,14.70
2022-12-14T23:58:23.696Z,14.40
